createdAt,value
2019-05-13T00:01:15.417Z,6.67
2019-05-13T00:03:44.513Z,7.40
2019-05-13T00:06:13.688Z,7.37
2019-05-13T00:08:44.038Z,8.08
2019-05-13T00:11:14.595Z,7.92
2019-05-13T00:13:44.402Z,7.60
2019-05-13T00:16:14.121Z,7.00
2019-05-13T00:18:44.441Z,7.05
2019-05-13T00:21:14.089Z,7.10
2019-05-13T00:23:44.234Z,7.10
2019-05-13T00:26:14.069Z,7.72
2019-05-13T00:28:44.344Z,7.20
2019-05-13T00:31:13.880Z,7.87
2019-05-13T00:33:44.465Z,7.50
2019-05-13T00:36:14.207Z,7.30
2019-05-13T00:38:44.055Z,8.27
2019-05-13T00:41:14.208Z,7.40
2019-05-13T00:43:44.398Z,7.62
2019-05-13T00:46:14.179Z,7.60
2019-05-13T00:48:43.961Z,7.10
2019-05-13T00:51:14.094Z,7.40
2019-05-13T00:53:44.205Z,6.85
2019-05-13T00:56:13.465Z,7.17
2019-05-13T00:58:43.755Z,7.00
2019-05-13T01:01:13.984Z,7.55
2019-05-13T01:03:44.161Z,7.27
2019-05-13T01:06:13.527Z,7.87
2019-05-13T01:08:44.270Z,7.40
2019-05-13T01:11:13.579Z,7.42
2019-05-13T01:13:43.378Z,7.42
2019-05-13T01:16:14.039Z,7.60
2019-05-13T01:18:43.360Z,7.00
2019-05-13T01:21:13.301Z,8.30
2019-05-13T01:23:43.861Z,8.10
2019-05-13T01:26:14.165Z,8.17
2019-05-13T01:28:43.678Z,8.88
2019-05-13T01:31:13.326Z,8.43
2019-05-13T01:33:44.474Z,8.90
2019-05-13T01:36:13.578Z,8.90
2019-05-13T01:38:43.631Z,8.00
2019-05-13T01:41:13.637Z,8.13
2019-05-13T01:43:44.120Z,8.17
2019-05-13T01:46:13.544Z,9.20
2019-05-13T01:48:43.751Z,9.35
2019-05-13T01:51:13.679Z,8.78
2019-05-13T01:53:44.051Z,8.80
2019-05-13T01:56:18.323Z,9.18
2019-05-13T01:58:47.439Z,9.10
2019-05-13T02:01:16.579Z,8.53
2019-05-13T02:03:45.693Z,8.68
2019-05-13T02:06:14.854Z,8.48
2019-05-13T02:08:44.090Z,8.20
2019-05-13T02:11:13.393Z,8.10
2019-05-13T02:13:44.605Z,8.20
2019-05-13T02:16:14.520Z,8.00
2019-05-13T02:18:44.436Z,7.92
2019-05-13T02:21:13.999Z,7.72
2019-05-13T02:23:44.321Z,8.43
2019-05-13T02:26:13.694Z,7.83
2019-05-13T02:28:43.613Z,8.00
2019-05-13T02:31:18.856Z,8.90
2019-05-13T02:33:43.806Z,7.83
2019-05-13T02:36:13.587Z,7.60
2019-05-13T02:38:43.031Z,7.92
2019-05-13T02:41:13.379Z,7.70
2019-05-13T02:43:45.196Z,8.28
2019-05-13T02:46:13.696Z,7.55
2019-05-13T02:48:42.799Z,8.20
2019-05-13T02:51:12.518Z,7.70
2019-05-13T02:53:43.715Z,7.60
2019-05-13T02:56:12.574Z,7.83
2019-05-13T02:58:42.760Z,8.07
2019-05-13T03:01:12.722Z,7.90
2019-05-13T03:03:44.444Z,7.92
2019-05-13T03:06:13.440Z,8.20
2019-05-13T03:08:49.515Z,8.10
2019-05-13T03:11:13.545Z,8.70
2019-05-13T03:13:42.743Z,9.68
2019-05-13T03:16:24.039Z,8.85
2019-05-13T03:18:53.165Z,10.13
2019-05-13T03:21:23.406Z,9.50
2019-05-13T03:23:52.827Z,8.85
2019-05-13T03:26:23.442Z,8.60
2019-05-13T03:28:52.867Z,8.80
2019-05-13T03:31:26.500Z,8.18
2019-05-13T03:33:55.791Z,8.78
2019-05-13T03:36:25.810Z,9.40
2019-05-13T03:39:04.626Z,8.60
2019-05-13T03:41:32.748Z,8.83
2019-05-13T03:44:03.640Z,9.20
2019-05-13T03:46:35.689Z,9.10
2019-05-13T03:49:06.665Z,9.18
2019-05-13T03:51:35.796Z,9.20
2019-05-13T03:54:04.920Z,9.10
2019-05-13T03:56:34.380Z,9.03
2019-05-13T03:59:03.514Z,9.60
2019-05-13T04:01:32.876Z,9.40
2019-05-13T04:04:03.285Z,8.80
2019-05-13T04:06:32.857Z,9.60
2019-05-13T04:09:20.800Z,8.90
2019-05-13T04:11:33.166Z,9.28
2019-05-13T04:14:03.294Z,8.80
2019-05-13T04:16:32.722Z,9.40
2019-05-13T04:19:02.695Z,9.00
2019-05-13T04:21:33.752Z,9.20
2019-05-13T04:24:04.253Z,8.55
2019-05-13T04:26:33.499Z,8.75
2019-05-13T04:29:03.304Z,9.20
2019-05-13T04:31:33.508Z,9.18
2019-05-13T04:34:03.219Z,9.05
2019-05-13T04:36:32.336Z,8.90
2019-05-13T04:39:03.316Z,9.00
2019-05-13T04:41:33.396Z,9.88
2019-05-13T04:44:02.933Z,9.45
2019-05-13T04:46:32.943Z,9.10
2019-05-13T04:49:02.478Z,9.40
2019-05-13T04:51:33.070Z,9.48
2019-05-13T04:54:02.994Z,10.08
2019-05-13T04:56:33.118Z,9.90
2019-05-13T04:59:03.107Z,9.70
2019-05-13T05:02:05.048Z,9.70
2019-05-13T05:04:52.650Z,9.70
2019-05-13T05:08:02.922Z,9.18
2019-05-13T05:11:14.463Z,9.15
2019-05-13T05:14:27.301Z,9.90
2019-05-13T05:17:32.840Z,10.00
2019-05-13T05:20:23.313Z,10.03
2019-05-13T05:23:39.345Z,9.80
2019-05-13T05:26:42.012Z,9.68
2019-05-13T05:29:58.825Z,9.90
2019-05-13T05:33:02.475Z,10.00
2019-05-13T05:35:55.466Z,10.95
2019-05-13T05:38:56.558Z,10.00
2019-05-13T05:41:28.951Z,10.50
2019-05-13T05:43:58.917Z,13.38
2019-05-13T05:46:32.388Z,10.10
2019-05-13T05:49:07.010Z,10.50
2019-05-13T05:51:37.050Z,9.80
2019-05-13T05:54:11.166Z,10.20
2019-05-13T05:56:41.510Z,10.28
2019-05-13T05:59:12.509Z,9.60
2019-05-13T06:01:45.262Z,9.70
2019-05-13T06:04:14.434Z,10.35
2019-05-13T06:06:44.049Z,8.20
2019-05-13T06:09:13.211Z,8.40
2019-05-13T06:11:42.663Z,9.20
2019-05-13T06:14:11.863Z,9.75
2019-05-13T06:16:42.592Z,8.63
2019-05-13T06:19:12.197Z,8.25
2019-05-13T06:21:42.133Z,8.20
2019-05-13T06:24:11.806Z,8.30
2019-05-13T06:26:42.055Z,7.05
2019-05-13T06:29:11.798Z,8.40
2019-05-13T06:31:41.940Z,8.15
2019-05-13T06:34:12.651Z,7.90
2019-05-13T06:36:42.035Z,6.97
2019-05-13T06:39:12.356Z,6.95
2019-05-13T06:41:41.812Z,7.83
2019-05-13T06:44:12.213Z,10.08
2019-05-13T06:46:42.315Z,7.60
2019-05-13T06:49:12.228Z,7.47
2019-05-13T06:51:41.932Z,8.03
2019-05-13T06:54:11.484Z,8.65
2019-05-13T06:56:42.843Z,7.92
2019-05-13T06:59:11.963Z,8.40
2019-05-13T07:01:42.408Z,7.50
2019-05-13T07:04:11.891Z,7.35
2019-05-13T07:06:41.856Z,7.22
2019-05-13T07:09:12.017Z,6.80
2019-05-13T07:11:41.699Z,6.10
2019-05-13T07:14:12.752Z,6.25
2019-05-13T07:16:42.253Z,5.60
2019-05-13T07:19:11.836Z,6.45
2019-05-13T07:21:41.880Z,7.30
2019-05-13T07:24:12.623Z,6.58
2019-05-13T07:26:42.173Z,4.78
2019-05-13T07:29:13.207Z,8.07
2019-05-13T07:31:42.347Z,6.20
2019-05-13T07:34:11.892Z,6.00
2019-05-13T07:36:42.151Z,7.53
2019-05-13T07:39:12.027Z,5.33
2019-05-13T07:41:43.099Z,4.40
2019-05-13T07:44:12.174Z,6.25
2019-05-13T07:46:42.749Z,5.90
2019-05-13T07:49:12.160Z,6.35
2019-05-13T07:51:42.002Z,5.33
2019-05-13T07:54:11.582Z,5.87
2019-05-13T07:56:42.611Z,6.43
2019-05-13T07:59:12.461Z,6.00
2019-05-13T08:01:41.950Z,6.45
2019-05-13T08:04:21.822Z,6.83
2019-05-13T08:06:42.045Z,7.17
2019-05-13T08:09:12.799Z,7.67
2019-05-13T08:12:00.506Z,4.20
2019-05-13T08:14:13.030Z,4.43
2019-05-13T08:16:42.786Z,5.70
2019-05-13T08:19:12.451Z,7.40
2019-05-13T08:21:41.954Z,6.33
2019-05-13T08:24:11.961Z,5.83
2019-05-13T08:26:45.103Z,5.37
2019-05-13T08:29:12.127Z,6.37
2019-05-13T08:31:41.381Z,4.50
2019-05-13T08:34:11.745Z,6.90
2019-05-13T08:36:42.599Z,5.47
2019-05-13T08:39:12.779Z,5.47
2019-05-13T08:41:42.493Z,5.65
2019-05-13T08:44:12.495Z,3.95
2019-05-13T08:46:41.822Z,4.75
2019-05-13T08:49:11.953Z,5.40
2019-05-13T08:51:42.099Z,5.42
2019-05-13T08:54:11.745Z,4.40
2019-05-13T08:56:41.622Z,5.17
2019-05-13T08:59:11.605Z,6.23
2019-05-13T09:01:42.706Z,6.42
2019-05-13T09:04:12.075Z,6.75
2019-05-13T09:06:41.985Z,5.30
2019-05-13T09:09:11.689Z,5.85
2019-05-13T09:11:42.148Z,7.03
2019-05-13T09:14:11.621Z,6.40
2019-05-13T09:16:41.905Z,5.53
2019-05-13T09:19:15.916Z,4.87
2019-05-13T09:21:42.418Z,5.22
2019-05-13T09:24:23.894Z,6.72
2019-05-13T09:26:42.621Z,4.97
2019-05-13T09:29:12.093Z,7.70
2019-05-13T09:31:41.694Z,8.27
2019-05-13T09:34:12.193Z,5.03
2019-05-13T09:36:41.821Z,3.60
2019-05-13T09:39:12.573Z,4.40
2019-05-13T09:41:44.623Z,6.05
2019-05-13T09:44:13.057Z,5.55
2019-05-13T09:46:42.666Z,5.10
2019-05-13T09:49:19.407Z,4.40
2019-05-13T09:51:42.832Z,3.85
2019-05-13T09:54:11.960Z,4.73
2019-05-13T09:56:41.450Z,5.42
2019-05-13T09:59:11.701Z,5.60
2019-05-13T10:01:42.559Z,4.30
2019-05-13T10:04:12.083Z,5.53
2019-05-13T10:06:42.231Z,6.72
2019-05-13T10:09:12.513Z,5.80
2019-05-13T10:11:41.961Z,6.03
2019-05-13T10:14:11.755Z,5.00
2019-05-13T10:16:42.542Z,4.67
2019-05-13T10:19:12.873Z,4.25
2019-05-13T10:21:42.400Z,5.57
2019-05-13T10:24:12.594Z,4.35
2019-05-13T10:26:43.280Z,3.10
2019-05-13T10:29:12.768Z,4.05
2019-05-13T10:31:42.459Z,4.58
2019-05-13T10:34:14.094Z,4.85
2019-05-13T10:36:42.520Z,3.87
2019-05-13T10:39:12.205Z,4.58
2019-05-13T10:41:42.274Z,7.08
2019-05-13T10:44:12.277Z,4.83
2019-05-13T10:46:42.629Z,4.20
2019-05-13T10:49:12.416Z,4.75
2019-05-13T10:51:42.077Z,4.60
2019-05-13T10:54:11.204Z,5.87
2019-05-13T10:56:43.136Z,5.12
2019-05-13T10:59:43.406Z,4.50
2019-05-13T11:02:13.368Z,4.53
2019-05-13T11:04:42.706Z,4.42
2019-05-13T11:07:12.222Z,5.90
2019-05-13T11:09:41.903Z,3.50
2019-05-13T11:12:12.443Z,3.60
2019-05-13T11:14:42.318Z,4.80
2019-05-13T11:17:13.094Z,5.10
2019-05-13T11:19:42.561Z,4.30
2019-05-13T11:22:12.423Z,3.72
2019-05-13T11:24:43.197Z,4.30
2019-05-13T11:27:12.613Z,6.20
2019-05-13T11:29:42.058Z,5.50
2019-05-13T11:32:13.182Z,4.70
2019-05-13T11:34:42.204Z,4.95
2019-05-13T11:37:12.367Z,5.45
2019-05-13T11:39:42.854Z,6.17
2019-05-13T11:42:13.632Z,3.77
2019-05-13T11:44:43.205Z,3.57
2019-05-13T11:47:12.814Z,3.65
2019-05-13T11:49:42.829Z,4.80
2019-05-13T11:52:12.246Z,4.90
2019-05-13T11:54:42.455Z,3.98
2019-05-13T11:57:12.675Z,4.20
2019-05-13T11:59:42.972Z,2.90
2019-05-13T12:02:13.620Z,2.85
2019-05-13T12:04:43.984Z,3.58
2019-05-13T12:07:14.205Z,3.52
2019-05-13T12:09:43.337Z,6.05
2019-05-13T12:12:13.412Z,2.93
2019-05-13T12:15:05.024Z,3.90
2019-05-13T12:17:14.415Z,3.77
2019-05-13T12:19:43.769Z,3.37
2019-05-13T12:22:13.266Z,3.50
2019-05-13T12:24:42.554Z,3.40
2019-05-13T12:27:11.870Z,6.08
2019-05-13T12:29:42.946Z,4.28
2019-05-13T12:32:13.701Z,4.80
2019-05-13T12:34:45.764Z,4.42
2019-05-13T12:37:14.200Z,3.77
2019-05-13T12:39:44.069Z,3.55
2019-05-13T12:42:13.313Z,3.67
2019-05-13T12:45:00.222Z,3.12
2019-05-13T12:47:13.361Z,4.15
2019-05-13T12:49:43.776Z,4.60
2019-05-13T12:52:14.149Z,2.02
2019-05-13T12:54:44.012Z,2.80
2019-05-13T12:57:16.248Z,5.70
2019-05-13T12:59:45.098Z,2.55
2019-05-13T13:02:14.256Z,3.40
2019-05-13T13:05:07.955Z,3.80
2019-05-13T13:07:14.379Z,3.37
2019-05-13T13:09:43.518Z,3.27
2019-05-13T13:12:12.897Z,3.07
2019-05-13T13:14:44.180Z,3.80
2019-05-13T13:17:13.133Z,3.77
2019-05-13T13:19:42.388Z,2.80
2019-05-13T13:24:50.726Z,2.60
2019-05-13T13:27:19.351Z,3.10
2019-05-13T13:29:44.588Z,2.50
2019-05-13T13:32:13.834Z,3.75
2019-05-13T13:34:44.110Z,4.70
2019-05-13T13:37:14.210Z,2.54
2019-05-13T13:39:43.725Z,2.70
2019-05-13T13:42:13.330Z,2.40
2019-05-13T13:44:43.033Z,2.98
2019-05-13T13:47:14.691Z,2.87
2019-05-13T13:49:44.190Z,4.40
2019-05-13T13:52:16.193Z,3.10
2019-05-13T13:54:44.918Z,4.90
2019-05-13T13:57:14.138Z,5.35
2019-05-13T14:00:14.257Z,2.60
2019-05-13T14:02:14.066Z,2.80
2019-05-13T14:04:43.398Z,2.30
2019-05-13T14:07:13.511Z,3.10
2019-05-13T14:07:22.954Z,2.62
2019-05-13T14:09:43.800Z,3.50
2019-05-13T14:12:12.948Z,4.03
2019-05-13T14:14:42.132Z,4.20
2019-05-13T14:17:11.550Z,3.75
2019-05-13T14:19:42.205Z,3.37
2019-05-13T14:22:12.528Z,3.35
2019-05-13T14:24:42.656Z,4.92
2019-05-13T14:27:12.293Z,3.17
2019-05-13T14:29:48.717Z,4.15
2019-05-13T14:32:12.452Z,2.50
2019-05-13T14:34:42.156Z,3.10
2019-05-13T14:37:11.837Z,3.12
2019-05-13T14:39:41.432Z,2.70
2019-05-13T14:42:11.591Z,4.45
2019-05-13T14:44:41.200Z,2.62
2019-05-13T14:47:12.479Z,3.75
2019-05-13T14:49:42.400Z,3.15
2019-05-13T14:52:12.442Z,5.35
2019-05-13T14:54:42.091Z,2.80
2019-05-13T14:57:14.662Z,2.42
2019-05-13T14:59:42.743Z,4.22
2019-05-13T15:02:12.141Z,2.35
2019-05-13T15:04:42.214Z,3.42
2019-05-13T15:07:12.332Z,4.37
2019-05-13T15:09:42.241Z,2.55
2019-05-13T15:12:11.498Z,2.40
2019-05-13T15:14:42.730Z,3.10
2019-05-13T15:17:12.817Z,2.75
2019-05-13T15:19:42.321Z,3.30
2019-05-13T15:22:12.559Z,3.35
2019-05-13T15:24:42.474Z,2.37
2019-05-13T15:27:12.214Z,2.02
2019-05-13T15:29:41.755Z,4.17
2019-05-13T15:32:11.036Z,3.37
2019-05-13T15:34:42.044Z,4.42
2019-05-13T15:37:11.399Z,3.50
2019-05-13T15:39:42.667Z,7.50
2019-05-13T15:42:12.083Z,2.60
2019-05-13T15:44:41.392Z,2.73
2019-05-13T15:47:22.754Z,2.30
2019-05-13T15:49:41.396Z,2.75
2019-05-13T15:52:11.773Z,2.90
2019-05-13T15:54:41.639Z,3.27
2019-05-13T15:57:11.910Z,2.70
2019-05-13T15:59:41.572Z,2.20
2019-05-13T16:02:11.681Z,3.40
2019-05-13T16:04:50.032Z,2.60
2019-05-13T16:07:12.388Z,2.92
2019-05-13T16:09:42.191Z,3.22
2019-05-13T16:12:14.456Z,2.50
2019-05-13T16:14:43.624Z,3.77
2019-05-13T16:17:13.005Z,3.27
2019-05-13T16:19:42.226Z,2.37
2019-05-13T16:22:11.959Z,2.70
2019-05-13T16:24:41.778Z,6.90
2019-05-13T16:27:11.829Z,3.10
2019-05-13T16:29:42.211Z,2.37
2019-05-13T16:32:12.106Z,4.27
2019-05-13T16:34:42.473Z,3.30
2019-05-13T16:37:11.948Z,3.10
2019-05-13T16:39:41.589Z,4.80
2019-05-13T16:42:11.651Z,1.47
2019-05-13T16:44:42.984Z,3.03
2019-05-13T16:47:12.430Z,2.40
2019-05-13T16:49:41.611Z,2.90
2019-05-13T16:52:11.742Z,2.90
2019-05-13T16:54:42.458Z,2.60
2019-05-13T16:57:12.019Z,3.23
2019-05-13T16:59:43.084Z,2.93
2019-05-13T17:02:12.789Z,2.53
2019-05-13T17:04:42.049Z,3.13
2019-05-13T17:07:13.850Z,2.67
2019-05-13T17:09:42.228Z,2.90
2019-05-13T17:12:13.840Z,2.70
2019-05-13T17:14:42.243Z,1.97
2019-05-13T17:17:11.913Z,4.47
2019-05-13T17:19:42.218Z,3.10
2019-05-13T17:22:11.572Z,2.80
2019-05-13T17:24:42.682Z,2.13
2019-05-13T17:27:12.204Z,2.10
2019-05-13T17:29:41.597Z,2.90
2019-05-13T17:32:11.619Z,1.70
2019-05-13T17:34:43.612Z,2.80
2019-05-13T17:37:11.930Z,4.00
2019-05-13T17:39:41.633Z,4.40
2019-05-13T17:42:12.149Z,1.23
2019-05-13T17:44:45.905Z,2.93
2019-05-13T17:47:12.545Z,2.93
2019-05-13T17:49:41.933Z,3.20
2019-05-13T17:52:11.498Z,3.07
2019-05-13T17:54:42.850Z,3.00
2019-05-13T17:57:12.493Z,2.10
2019-05-13T17:59:41.930Z,7.43
2019-05-13T18:02:11.824Z,4.47
2019-05-13T18:04:41.615Z,1.73
2019-05-13T18:07:12.251Z,3.40
2019-05-13T18:09:42.311Z,5.20
2019-05-13T18:12:11.879Z,2.90
2019-05-13T18:14:41.354Z,2.20
2019-05-13T18:17:12.562Z,4.30
2019-05-13T18:19:42.253Z,2.67
2019-05-13T18:22:11.652Z,4.47
2019-05-13T18:24:40.853Z,2.00
2019-05-13T18:27:12.226Z,2.33
2019-05-13T18:29:42.029Z,4.50
2019-05-13T18:32:12.318Z,2.60
2019-05-13T18:34:41.850Z,2.10
2019-05-13T18:37:11.967Z,2.77
2019-05-13T18:39:41.742Z,3.93
2019-05-13T18:42:11.647Z,3.47
2019-05-13T18:44:42.119Z,1.70
2019-05-13T18:47:12.227Z,2.90
2019-05-13T18:49:42.308Z,4.67
2019-05-13T18:52:12.234Z,3.73
2019-05-13T18:54:42.213Z,4.20
2019-05-13T18:57:12.240Z,3.87
2019-05-13T18:59:41.802Z,5.43
2019-05-13T19:02:12.249Z,1.70
2019-05-13T19:04:41.849Z,4.27
2019-05-13T19:07:11.347Z,5.73
2019-05-13T19:09:41.771Z,1.83
2019-05-13T19:12:11.744Z,3.03
2019-05-13T19:14:41.749Z,3.13
2019-05-13T19:17:12.357Z,1.77
2019-05-13T19:19:42.285Z,4.83
2019-05-13T19:22:12.281Z,7.70
2019-05-13T19:24:41.865Z,3.73
2019-05-13T19:27:12.042Z,3.63
2019-05-13T19:29:42.566Z,4.10
2019-05-13T19:32:12.563Z,3.97
2019-05-13T19:34:43.417Z,4.83
2019-05-13T19:37:12.882Z,3.33
2019-05-13T19:39:42.496Z,6.78
2019-05-13T19:42:13.059Z,5.72
2019-05-13T19:44:42.437Z,4.75
2019-05-13T19:47:12.538Z,6.00
2019-05-13T19:49:46.124Z,5.10
2019-05-13T19:52:13.048Z,4.53
2019-05-13T19:54:42.299Z,5.35
2019-05-13T19:57:12.098Z,5.75
2019-05-13T19:59:42.700Z,4.53
2019-05-13T20:02:12.411Z,5.30
2019-05-13T20:04:41.919Z,7.25
2019-05-13T20:07:11.974Z,6.45
2019-05-13T20:09:42.521Z,10.20
2019-05-13T20:12:15.540Z,11.35
2019-05-13T20:14:43.571Z,8.88
2019-05-13T20:17:12.796Z,6.15
2019-05-13T20:19:50.329Z,5.17
2019-05-13T20:22:15.862Z,8.75
2019-05-13T20:24:45.284Z,6.92
2019-05-13T20:27:14.686Z,7.12
2019-05-13T20:29:44.104Z,7.20
2019-05-13T20:32:13.522Z,8.03
2019-05-13T20:34:45.410Z,9.18
2019-05-13T20:37:14.983Z,6.83
2019-05-13T20:39:44.129Z,4.40
2019-05-13T20:42:13.345Z,5.97
2019-05-13T20:44:42.481Z,5.25
2019-05-13T20:47:11.617Z,5.47
2019-05-13T20:49:41.799Z,4.90
2019-05-13T20:52:15.103Z,5.93
2019-05-13T20:54:42.033Z,5.90
2019-05-13T20:57:11.237Z,5.90
2019-05-13T20:59:41.359Z,5.90
2019-05-13T21:02:12.402Z,5.20
2019-05-13T21:04:41.704Z,4.30
2019-05-13T21:07:10.876Z,4.23
2019-05-13T21:09:42.153Z,5.27
2019-05-13T21:12:12.021Z,3.40
2019-05-13T21:14:42.899Z,4.10
2019-05-13T21:17:12.407Z,1.90
2019-05-13T21:19:42.962Z,2.80
2019-05-13T21:22:12.250Z,2.63
2019-05-13T21:24:41.447Z,2.07
2019-05-13T21:27:11.917Z,3.23
2019-05-13T21:29:41.459Z,3.17
2019-05-13T21:32:11.813Z,3.72
2019-05-13T21:34:41.115Z,3.92
2019-05-13T21:37:11.518Z,4.53
2019-05-13T21:39:41.373Z,4.67
2019-05-13T21:42:11.468Z,4.60
2019-05-13T21:44:42.022Z,2.77
2019-05-13T21:47:11.461Z,3.80
2019-05-13T21:49:42.349Z,4.22
2019-05-13T21:52:12.235Z,2.65
2019-05-13T21:54:42.198Z,2.22
2019-05-13T21:57:11.529Z,6.62
2019-05-13T21:59:41.385Z,3.85
2019-05-13T22:02:10.768Z,2.12
2019-05-13T22:04:41.267Z,2.47
2019-05-13T22:07:12.170Z,2.02
2019-05-13T22:09:42.270Z,2.83
2019-05-13T22:12:11.735Z,4.50
2019-05-13T22:14:41.310Z,7.08
2019-05-13T22:17:12.343Z,2.87
2019-05-13T22:19:41.985Z,3.50
2019-05-13T22:22:11.681Z,2.92
2019-05-13T22:24:41.829Z,3.27
2019-05-13T22:27:13.200Z,3.30
2019-05-13T22:29:42.067Z,3.13
2019-05-13T22:32:11.431Z,2.90
2019-05-13T22:34:41.960Z,7.85
2019-05-13T22:37:11.672Z,4.80
2019-05-13T22:39:42.188Z,6.15
2019-05-13T22:42:12.462Z,2.10
2019-05-13T22:44:41.981Z,4.45
2019-05-13T22:47:13.308Z,2.08
2019-05-13T22:49:42.177Z,5.65
2019-05-13T22:52:11.500Z,4.10
2019-05-13T22:54:41.279Z,3.20
2019-05-13T22:57:12.012Z,2.37
2019-05-13T22:59:41.666Z,2.83
2019-05-13T23:02:11.007Z,3.02
2019-05-13T23:04:41.888Z,4.30
2019-05-13T23:07:11.752Z,4.62
2019-05-13T23:09:41.683Z,3.00
2019-05-13T23:12:12.287Z,8.10
2019-05-13T23:14:41.635Z,6.12
2019-05-13T23:17:12.532Z,2.62
2019-05-13T23:19:41.795Z,4.37
2019-05-13T23:22:12.044Z,3.65
2019-05-13T23:24:41.791Z,3.05
2019-05-13T23:27:11.189Z,3.17
2019-05-13T23:29:41.225Z,6.22
2019-05-13T23:32:11.995Z,3.90
2019-05-13T23:34:42.333Z,2.45
2019-05-13T23:37:11.638Z,8.63
2019-05-13T23:39:41.677Z,2.12
2019-05-13T23:42:12.120Z,5.53
2019-05-13T23:44:41.754Z,3.25
2019-05-13T23:47:11.566Z,5.35
2019-05-13T23:49:42.253Z,3.75
2019-05-13T23:52:11.969Z,4.05
2019-05-13T23:54:42.496Z,3.58
2019-05-13T23:57:12.064Z,2.40
2019-05-13T23:59:41.897Z,4.40
